sensor_id;sensor_type;location;lat;lon;timestamp;P1;durP1;ratioP1;P2;durP2;ratioP2
4827;SDS011;2428;48.732;9.148;2023-02-15T00:01:11;4.43;;;3.83;;
4827;SDS011;2428;48.732;9.148;2023-02-15T00:03:37;3.80;;;2.87;;
4827;SDS011;2428;48.732;9.148;2023-02-15T00:06:03;5.10;;;3.80;;
4827;SDS011;2428;48.732;9.148;2023-02-15T00:08:29;8.77;;;2.90;;
4827;SDS011;2428;48.732;9.148;2023-02-15T00:11:04;5.20;;;3.20;;
4827;SDS011;2428;48.732;9.148;2023-02-15T00:13:38;2.55;;;2.45;;
4827;SDS011;2428;48.732;9.148;2023-02-15T00:16:07;2.65;;;2.45;;
4827;SDS011;2428;48.732;9.148;2023-02-15T00:18:35;4.13;;;3.80;;
4827;SDS011;2428;48.732;9.148;2023-02-15T00:21:05;4.00;;;2.23;;
4827;SDS011;2428;48.732;9.148;2023-02-15T00:23:32;2.13;;;1.92;;
4827;SDS011;2428;48.732;9.148;2023-02-15T00:28:34;5.20;;;3.20;;
4827;SDS011;2428;48.732;9.148;2023-02-15T00:31:03;4.90;;;1.93;;
4827;SDS011;2428;48.732;9.148;2023-02-15T00:33:33;3.70;;;2.42;;
4827;SDS011;2428;48.732;9.148;2023-02-15T00:35:59;3.20;;;2.85;;
4827;SDS011;2428;48.732;9.148;2023-02-15T00:38:26;3.30;;;2.97;;
4827;SDS011;2428;48.732;9.148;2023-02-15T00:40:53;4.28;;;2.60;;
4827;SDS011;2428;48.732;9.148;2023-02-15T00:43:19;3.05;;;1.48;;
4827;SDS011;2428;48.732;9.148;2023-02-15T00:45:45;3.15;;;2.85;;
4827;SDS011;2428;48.732;9.148;2023-02-15T00:48:11;3.87;;;2.67;;
4827;SDS011;2428;48.732;9.148;2023-02-15T00:50:37;2.80;;;2.10;;
4827;SDS011;2428;48.732;9.148;2023-02-15T00:53:02;4.13;;;3.40;;
4827;SDS011;2428;48.732;9.148;2023-02-15T00:55:28;3.57;;;2.60;;
4827;SDS011;2428;48.732;9.148;2023-02-15T00:57:54;1.50;;;1.40;;
4827;SDS011;2428;48.732;9.148;2023-02-15T01:00:19;10.40;;;5.33;;
4827;SDS011;2428;48.732;9.148;2023-02-15T01:02:45;4.20;;;3.17;;
4827;SDS011;2428;48.732;9.148;2023-02-15T01:05:10;3.20;;;2.77;;
4827;SDS011;2428;48.732;9.148;2023-02-15T01:07:36;2.40;;;1.87;;
4827;SDS011;2428;48.732;9.148;2023-02-15T01:10:02;4.03;;;2.53;;
4827;SDS011;2428;48.732;9.148;2023-02-15T01:12:27;5.47;;;2.60;;
4827;SDS011;2428;48.732;9.148;2023-02-15T01:14:53;5.93;;;4.13;;
4827;SDS011;2428;48.732;9.148;2023-02-15T01:17:18;2.47;;;2.27;;
4827;SDS011;2428;48.732;9.148;2023-02-15T01:19:44;3.93;;;2.73;;
4827;SDS011;2428;48.732;9.148;2023-02-15T01:22:10;3.87;;;2.33;;
4827;SDS011;2428;48.732;9.148;2023-02-15T01:24:35;2.77;;;2.57;;
4827;SDS011;2428;48.732;9.148;2023-02-15T01:27:01;3.47;;;3.17;;
4827;SDS011;2428;48.732;9.148;2023-02-15T01:29:26;4.00;;;1.50;;
4827;SDS011;2428;48.732;9.148;2023-02-15T01:31:52;4.20;;;3.10;;
4827;SDS011;2428;48.732;9.148;2023-02-15T01:34:18;5.63;;;3.80;;
4827;SDS011;2428;48.732;9.148;2023-02-15T01:36:43;9.90;;;4.10;;
4827;SDS011;2428;48.732;9.148;2023-02-15T01:39:09;1.53;;;1.40;;
4827;SDS011;2428;48.732;9.148;2023-02-15T01:41:35;2.78;;;2.67;;
4827;SDS011;2428;48.732;9.148;2023-02-15T01:44:01;5.80;;;3.13;;
4827;SDS011;2428;48.732;9.148;2023-02-15T01:49:12;2.85;;;2.75;;
4827;SDS011;2428;48.732;9.148;2023-02-15T01:51:44;2.15;;;2.05;;
4827;SDS011;2428;48.732;9.148;2023-02-15T01:54:27;3.45;;;2.97;;
4827;SDS011;2428;48.732;9.148;2023-02-15T01:56:58;3.28;;;3.08;;
4827;SDS011;2428;48.732;9.148;2023-02-15T01:59:28;4.90;;;4.50;;
4827;SDS011;2428;48.732;9.148;2023-02-15T02:01:55;3.90;;;3.60;;
4827;SDS011;2428;48.732;9.148;2023-02-15T02:04:35;3.05;;;2.83;;
4827;SDS011;2428;48.732;9.148;2023-02-15T02:07:07;2.92;;;2.75;;
4827;SDS011;2428;48.732;9.148;2023-02-15T02:09:34;2.30;;;2.13;;
4827;SDS011;2428;48.732;9.148;2023-02-15T02:12:01;5.32;;;4.93;;
4827;SDS011;2428;48.732;9.148;2023-02-15T02:14:27;3.83;;;2.70;;
4827;SDS011;2428;48.732;9.148;2023-02-15T02:34:25;5.47;;;3.05;;
4827;SDS011;2428;48.732;9.148;2023-02-15T02:37:00;2.08;;;1.98;;
4827;SDS011;2428;48.732;9.148;2023-02-15T02:39:42;1.48;;;1.33;;
4827;SDS011;2428;48.732;9.148;2023-02-15T02:47:43;5.47;;;2.25;;
4827;SDS011;2428;48.732;9.148;2023-02-15T02:50:39;2.47;;;2.33;;
4827;SDS011;2428;48.732;9.148;2023-02-15T02:53:06;2.10;;;1.95;;
4827;SDS011;2428;48.732;9.148;2023-02-15T02:55:36;4.03;;;2.57;;
4827;SDS011;2428;48.732;9.148;2023-02-15T03:03:28;4.10;;;3.35;;
4827;SDS011;2428;48.732;9.148;2023-02-15T03:06:03;2.45;;;2.35;;
4827;SDS011;2428;48.732;9.148;2023-02-15T03:08:39;2.70;;;2.47;;
4827;SDS011;2428;48.732;9.148;2023-02-15T03:11:08;5.55;;;4.43;;
4827;SDS011;2428;48.732;9.148;2023-02-15T03:13:36;7.47;;;4.15;;
4827;SDS011;2428;48.732;9.148;2023-02-15T03:16:02;4.68;;;4.15;;
4827;SDS011;2428;48.732;9.148;2023-02-15T03:18:50;3.97;;;3.58;;
4827;SDS011;2428;48.732;9.148;2023-02-15T03:21:33;4.32;;;1.98;;
4827;SDS011;2428;48.732;9.148;2023-02-15T03:24:33;3.63;;;2.85;;
4827;SDS011;2428;48.732;9.148;2023-02-15T03:27:02;3.38;;;2.85;;
4827;SDS011;2428;48.732;9.148;2023-02-15T03:29:31;6.60;;;3.10;;
4827;SDS011;2428;48.732;9.148;2023-02-15T03:31:58;1.58;;;1.48;;
4827;SDS011;2428;48.732;9.148;2023-02-15T03:34:26;7.03;;;4.68;;
4827;SDS011;2428;48.732;9.148;2023-02-15T03:39:37;3.08;;;2.97;;
4827;SDS011;2428;48.732;9.148;2023-02-15T03:42:17;4.30;;;4.10;;
4827;SDS011;2428;48.732;9.148;2023-02-15T03:44:57;2.70;;;2.60;;
4827;SDS011;2428;48.732;9.148;2023-02-15T03:47:29;6.07;;;5.15;;
4827;SDS011;2428;48.732;9.148;2023-02-15T03:50:04;5.43;;;5.00;;
4827;SDS011;2428;48.732;9.148;2023-02-15T03:52:56;4.60;;;4.20;;
4827;SDS011;2428;48.732;9.148;2023-02-15T03:55:25;3.85;;;2.92;;
4827;SDS011;2428;48.732;9.148;2023-02-15T03:57:51;4.15;;;2.53;;
4827;SDS011;2428;48.732;9.148;2023-02-15T04:00:57;3.35;;;3.15;;
4827;SDS011;2428;48.732;9.148;2023-02-15T04:03:44;5.38;;;3.00;;
4827;SDS011;2428;48.732;9.148;2023-02-15T04:06:17;1.35;;;1.25;;
4827;SDS011;2428;48.732;9.148;2023-02-15T04:08:42;3.20;;;2.20;;
4827;SDS011;2428;48.732;9.148;2023-02-15T04:11:26;3.03;;;2.83;;
4827;SDS011;2428;48.732;9.148;2023-02-15T04:13:52;11.33;;;4.70;;
4827;SDS011;2428;48.732;9.148;2023-02-15T04:16:22;3.10;;;2.90;;
4827;SDS011;2428;48.732;9.148;2023-02-15T04:18:48;4.53;;;4.15;;
4827;SDS011;2428;48.732;9.148;2023-02-15T04:21:32;2.85;;;2.65;;
4827;SDS011;2428;48.732;9.148;2023-02-15T04:24:17;7.20;;;6.13;;
4827;SDS011;2428;48.732;9.148;2023-02-15T04:27:02;2.90;;;2.08;;
4827;SDS011;2428;48.732;9.148;2023-02-15T04:29:29;0.90;;;0.90;;
4827;SDS011;2428;48.732;9.148;2023-02-15T04:31:56;3.35;;;2.83;;
4827;SDS011;2428;48.732;9.148;2023-02-15T04:34:23;4.35;;;4.07;;
4827;SDS011;2428;48.732;9.148;2023-02-15T04:36:49;2.93;;;2.50;;
4827;SDS011;2428;48.732;9.148;2023-02-15T04:39:15;3.40;;;3.10;;
4827;SDS011;2428;48.732;9.148;2023-02-15T04:41:42;4.85;;;4.45;;
4827;SDS011;2428;48.732;9.148;2023-02-15T04:44:08;2.85;;;2.28;;
4827;SDS011;2428;48.732;9.148;2023-02-15T04:46:34;3.17;;;3.03;;
4827;SDS011;2428;48.732;9.148;2023-02-15T04:49:00;4.20;;;3.00;;
4827;SDS011;2428;48.732;9.148;2023-02-15T04:51:26;2.83;;;2.70;;
4827;SDS011;2428;48.732;9.148;2023-02-15T04:53:51;3.63;;;3.27;;
4827;SDS011;2428;48.732;9.148;2023-02-15T04:56:21;7.43;;;4.05;;
4827;SDS011;2428;48.732;9.148;2023-02-15T04:58:47;7.23;;;6.53;;
4827;SDS011;2428;48.732;9.148;2023-02-15T05:01:12;7.53;;;3.63;;
4827;SDS011;2428;48.732;9.148;2023-02-15T05:03:38;1.67;;;1.58;;
4827;SDS011;2428;48.732;9.148;2023-02-15T05:06:04;2.10;;;1.80;;
4827;SDS011;2428;48.732;9.148;2023-02-15T05:08:30;4.73;;;4.27;;
4827;SDS011;2428;48.732;9.148;2023-02-15T05:10:56;5.63;;;4.40;;
4827;SDS011;2428;48.732;9.148;2023-02-15T05:13:22;5.80;;;2.57;;
4827;SDS011;2428;48.732;9.148;2023-02-15T05:15:49;3.92;;;3.05;;
4827;SDS011;2428;48.732;9.148;2023-02-15T05:18:19;3.08;;;2.78;;
4827;SDS011;2428;48.732;9.148;2023-02-15T05:20:46;5.25;;;4.43;;
4827;SDS011;2428;48.732;9.148;2023-02-15T05:23:12;6.00;;;2.97;;
4827;SDS011;2428;48.732;9.148;2023-02-15T05:25:38;2.60;;;2.50;;
4827;SDS011;2428;48.732;9.148;2023-02-15T05:28:22;2.35;;;2.25;;
4827;SDS011;2428;48.732;9.148;2023-02-15T05:30:51;3.53;;;3.30;;
4827;SDS011;2428;48.732;9.148;2023-02-15T05:33:39;3.15;;;2.13;;
4827;SDS011;2428;48.732;9.148;2023-02-15T05:36:05;7.25;;;2.38;;
4827;SDS011;2428;48.732;9.148;2023-02-15T05:38:32;4.53;;;4.10;;
4827;SDS011;2428;48.732;9.148;2023-02-15T05:40:58;2.80;;;2.63;;
4827;SDS011;2428;48.732;9.148;2023-02-15T05:43:23;6.43;;;4.97;;
4827;SDS011;2428;48.732;9.148;2023-02-15T05:45:53;3.88;;;3.58;;
4827;SDS011;2428;48.732;9.148;2023-02-15T05:48:20;2.30;;;2.20;;
4827;SDS011;2428;48.732;9.148;2023-02-15T05:50:56;2.55;;;2.33;;
4827;SDS011;2428;48.732;9.148;2023-02-15T05:53:27;3.33;;;2.95;;
4827;SDS011;2428;48.732;9.148;2023-02-15T05:55:53;4.13;;;2.67;;
4827;SDS011;2428;48.732;9.148;2023-02-15T05:58:23;2.53;;;2.42;;
4827;SDS011;2428;48.732;9.148;2023-02-15T06:00:53;7.60;;;4.25;;
4827;SDS011;2428;48.732;9.148;2023-02-15T06:03:18;1.77;;;1.67;;
4827;SDS011;2428;48.732;9.148;2023-02-15T06:05:44;2.03;;;1.93;;
4827;SDS011;2428;48.732;9.148;2023-02-15T06:08:10;1.63;;;1.53;;
4827;SDS011;2428;48.732;9.148;2023-02-15T06:10:35;3.43;;;3.23;;
4827;SDS011;2428;48.732;9.148;2023-02-15T06:13:01;1.70;;;1.53;;
4827;SDS011;2428;48.732;9.148;2023-02-15T06:15:27;5.90;;;3.90;;
4827;SDS011;2428;48.732;9.148;2023-02-15T06:17:52;5.83;;;5.53;;
4827;SDS011;2428;48.732;9.148;2023-02-15T06:20:18;2.70;;;2.57;;
4827;SDS011;2428;48.732;9.148;2023-02-15T06:22:43;3.27;;;2.90;;
4827;SDS011;2428;48.732;9.148;2023-02-15T06:25:09;2.60;;;2.50;;
4827;SDS011;2428;48.732;9.148;2023-02-15T06:27:36;0.98;;;0.98;;
4827;SDS011;2428;48.732;9.148;2023-02-15T06:30:02;4.28;;;2.42;;
4827;SDS011;2428;48.732;9.148;2023-02-15T06:32:31;2.97;;;2.70;;
4827;SDS011;2428;48.732;9.148;2023-02-15T06:34:57;3.90;;;2.60;;
4827;SDS011;2428;48.732;9.148;2023-02-15T06:37:22;2.10;;;2.00;;
4827;SDS011;2428;48.732;9.148;2023-02-15T06:39:48;2.37;;;1.93;;
4827;SDS011;2428;48.732;9.148;2023-02-15T06:42:14;5.50;;;1.63;;
4827;SDS011;2428;48.732;9.148;2023-02-15T06:44:39;1.90;;;1.57;;
4827;SDS011;2428;48.732;9.148;2023-02-15T06:47:05;6.27;;;2.40;;
4827;SDS011;2428;48.732;9.148;2023-02-15T06:49:30;4.40;;;3.87;;
4827;SDS011;2428;48.732;9.148;2023-02-15T06:51:56;2.50;;;2.37;;
4827;SDS011;2428;48.732;9.148;2023-02-15T06:54:21;3.80;;;2.87;;
4827;SDS011;2428;48.732;9.148;2023-02-15T06:56:47;3.23;;;3.03;;
4827;SDS011;2428;48.732;9.148;2023-02-15T06:59:12;2.87;;;2.53;;
4827;SDS011;2428;48.732;9.148;2023-02-15T07:01:38;4.37;;;3.97;;
4827;SDS011;2428;48.732;9.148;2023-02-15T07:04:04;3.20;;;3.00;;
4827;SDS011;2428;48.732;9.148;2023-02-15T07:06:33;2.47;;;2.37;;
4827;SDS011;2428;48.732;9.148;2023-02-15T07:08:59;2.78;;;2.10;;
4827;SDS011;2428;48.732;9.148;2023-02-15T07:11:24;2.80;;;2.70;;
4827;SDS011;2428;48.732;9.148;2023-02-15T07:14:25;18.98;;;4.10;;
4827;SDS011;2428;48.732;9.148;2023-02-15T07:16:51;3.50;;;3.40;;
4827;SDS011;2428;48.732;9.148;2023-02-15T07:19:17;5.07;;;4.17;;
4827;SDS011;2428;48.732;9.148;2023-02-15T07:21:42;4.67;;;4.17;;
4827;SDS011;2428;48.732;9.148;2023-02-15T07:24:10;2.95;;;1.98;;
4827;SDS011;2428;48.732;9.148;2023-02-15T07:26:35;2.70;;;2.50;;
4827;SDS011;2428;48.732;9.148;2023-02-15T07:29:01;6.20;;;3.60;;
4827;SDS011;2428;48.732;9.148;2023-02-15T07:31:27;2.87;;;2.67;;
4827;SDS011;2428;48.732;9.148;2023-02-15T07:33:52;2.23;;;2.00;;
4827;SDS011;2428;48.732;9.148;2023-02-15T07:36:18;3.77;;;3.57;;
4827;SDS011;2428;48.732;9.148;2023-02-15T07:38:44;10.00;;;2.63;;
4827;SDS011;2428;48.732;9.148;2023-02-15T07:41:10;3.07;;;2.80;;
4827;SDS011;2428;48.732;9.148;2023-02-15T07:43:38;2.75;;;2.08;;
4827;SDS011;2428;48.732;9.148;2023-02-15T07:46:06;3.45;;;3.13;;
4827;SDS011;2428;48.732;9.148;2023-02-15T07:48:34;4.32;;;3.03;;
4827;SDS011;2428;48.732;9.148;2023-02-15T07:51:01;2.10;;;2.00;;
4827;SDS011;2428;48.732;9.148;2023-02-15T07:53:28;6.22;;;5.13;;
4827;SDS011;2428;48.732;9.148;2023-02-15T07:55:54;2.65;;;2.55;;
4827;SDS011;2428;48.732;9.148;2023-02-15T07:58:22;3.00;;;2.90;;
4827;SDS011;2428;48.732;9.148;2023-02-15T08:01:08;4.00;;;3.65;;
4827;SDS011;2428;48.732;9.148;2023-02-15T08:03:34;4.27;;;3.87;;
4827;SDS011;2428;48.732;9.148;2023-02-15T08:05:59;4.67;;;4.00;;
4827;SDS011;2428;48.732;9.148;2023-02-15T08:08:26;2.83;;;2.73;;
4827;SDS011;2428;48.732;9.148;2023-02-15T08:11:05;3.70;;;2.35;;
4827;SDS011;2428;48.732;9.148;2023-02-15T08:19:25;3.42;;;3.20;;
4827;SDS011;2428;48.732;9.148;2023-02-15T08:21:53;5.70;;;3.80;;
4827;SDS011;2428;48.732;9.148;2023-02-15T08:24:22;4.35;;;4.07;;
4827;SDS011;2428;48.732;9.148;2023-02-15T08:26:49;11.88;;;4.70;;
4827;SDS011;2428;48.732;9.148;2023-02-15T08:29:17;3.80;;;2.25;;
4827;SDS011;2428;48.732;9.148;2023-02-15T08:31:45;4.38;;;3.92;;
4827;SDS011;2428;48.732;9.148;2023-02-15T08:34:13;6.95;;;5.35;;
4827;SDS011;2428;48.732;9.148;2023-02-15T08:36:43;5.50;;;3.08;;
4827;SDS011;2428;48.732;9.148;2023-02-15T08:39:12;5.20;;;3.60;;
4827;SDS011;2428;48.732;9.148;2023-02-15T08:41:39;4.68;;;3.40;;
4827;SDS011;2428;48.732;9.148;2023-02-15T08:44:08;8.82;;;4.97;;
4827;SDS011;2428;48.732;9.148;2023-02-15T08:46:36;5.10;;;4.60;;
4827;SDS011;2428;48.732;9.148;2023-02-15T08:49:03;4.65;;;4.25;;
4827;SDS011;2428;48.732;9.148;2023-02-15T08:51:31;6.78;;;5.82;;
4827;SDS011;2428;48.732;9.148;2023-02-15T08:53:59;5.35;;;4.55;;
4827;SDS011;2428;48.732;9.148;2023-02-15T08:56:29;4.72;;;4.28;;
4827;SDS011;2428;48.732;9.148;2023-02-15T08:58:57;5.85;;;3.30;;
4827;SDS011;2428;48.732;9.148;2023-02-15T09:01:24;13.90;;;5.53;;
4827;SDS011;2428;48.732;9.148;2023-02-15T09:03:52;3.80;;;3.50;;
4827;SDS011;2428;48.732;9.148;2023-02-15T09:06:21;6.80;;;3.90;;
4827;SDS011;2428;48.732;9.148;2023-02-15T09:08:48;3.13;;;2.92;;
4827;SDS011;2428;48.732;9.148;2023-02-15T09:11:18;4.63;;;4.20;;
4827;SDS011;2428;48.732;9.148;2023-02-15T09:13:52;6.68;;;6.07;;
4827;SDS011;2428;48.732;9.148;2023-02-15T09:16:22;5.32;;;4.55;;
4827;SDS011;2428;48.732;9.148;2023-02-15T09:18:50;5.38;;;4.88;;
4827;SDS011;2428;48.732;9.148;2023-02-15T09:21:17;2.65;;;2.47;;
4827;SDS011;2428;48.732;9.148;2023-02-15T09:23:45;8.02;;;3.80;;
4827;SDS011;2428;48.732;9.148;2023-02-15T09:26:12;6.10;;;5.45;;
4827;SDS011;2428;48.732;9.148;2023-02-15T09:28:43;5.03;;;2.58;;
4827;SDS011;2428;48.732;9.148;2023-02-15T09:33:40;4.53;;;3.65;;
4827;SDS011;2428;48.732;9.148;2023-02-15T09:36:40;4.22;;;3.83;;
4827;SDS011;2428;48.732;9.148;2023-02-15T09:52:43;7.97;;;5.67;;
4827;SDS011;2428;48.732;9.148;2023-02-15T10:03:13;9.73;;;6.70;;
4827;SDS011;2428;48.732;9.148;2023-02-15T10:08:25;10.70;;;6.47;;
4827;SDS011;2428;48.732;9.148;2023-02-15T10:11:14;8.60;;;6.83;;
4827;SDS011;2428;48.732;9.148;2023-02-15T10:24:45;10.50;;;8.03;;
4827;SDS011;2428;48.732;9.148;2023-02-15T10:27:17;10.47;;;7.23;;
4827;SDS011;2428;48.732;9.148;2023-02-15T10:29:51;8.40;;;6.60;;
4827;SDS011;2428;48.732;9.148;2023-02-15T10:32:47;10.30;;;6.97;;
4827;SDS011;2428;48.732;9.148;2023-02-15T10:38:01;8.80;;;5.90;;
4827;SDS011;2428;48.732;9.148;2023-02-15T10:52:44;7.97;;;4.53;;
4827;SDS011;2428;48.732;9.148;2023-02-15T10:58:16;4.20;;;3.80;;
4827;SDS011;2428;48.732;9.148;2023-02-15T11:01:05;5.93;;;4.83;;
4827;SDS011;2428;48.732;9.148;2023-02-15T11:04:08;5.37;;;4.73;;
4827;SDS011;2428;48.732;9.148;2023-02-15T11:06:54;6.23;;;5.03;;
4827;SDS011;2428;48.732;9.148;2023-02-15T11:09:29;5.23;;;4.57;;
4827;SDS011;2428;48.732;9.148;2023-02-15T11:12:02;7.07;;;4.80;;
4827;SDS011;2428;48.732;9.148;2023-02-15T11:14:37;5.20;;;4.40;;
4827;SDS011;2428;48.732;9.148;2023-02-15T11:17:25;5.10;;;4.33;;
4827;SDS011;2428;48.732;9.148;2023-02-15T11:20:45;11.50;;;5.93;;
4827;SDS011;2428;48.732;9.148;2023-02-15T11:22:56;5.45;;;4.97;;
4827;SDS011;2428;48.732;9.148;2023-02-15T11:25:31;5.53;;;4.30;;
4827;SDS011;2428;48.732;9.148;2023-02-15T11:27:59;6.63;;;4.20;;
4827;SDS011;2428;48.732;9.148;2023-02-15T11:30:53;9.40;;;4.50;;
4827;SDS011;2428;48.732;9.148;2023-02-15T11:33:37;3.90;;;3.43;;
4827;SDS011;2428;48.732;9.148;2023-02-15T11:36:15;5.07;;;4.57;;
4827;SDS011;2428;48.732;9.148;2023-02-15T11:38:49;4.67;;;4.17;;
4827;SDS011;2428;48.732;9.148;2023-02-15T11:41:22;4.10;;;3.70;;
4827;SDS011;2428;48.732;9.148;2023-02-15T11:46:30;3.03;;;2.80;;
4827;SDS011;2428;48.732;9.148;2023-02-15T11:48:56;8.57;;;4.97;;
4827;SDS011;2428;48.732;9.148;2023-02-15T11:51:23;6.67;;;5.77;;
4827;SDS011;2428;48.732;9.148;2023-02-15T11:53:49;9.10;;;6.57;;
4827;SDS011;2428;48.732;9.148;2023-02-15T11:56:16;7.40;;;5.20;;
4827;SDS011;2428;48.732;9.148;2023-02-15T11:58:52;9.73;;;6.07;;
4827;SDS011;2428;48.732;9.148;2023-02-15T12:03:54;11.10;;;6.50;;
4827;SDS011;2428;48.732;9.148;2023-02-15T12:06:24;12.87;;;5.87;;
4827;SDS011;2428;48.732;9.148;2023-02-15T12:08:54;7.23;;;5.47;;
4827;SDS011;2428;48.732;9.148;2023-02-15T12:11:42;6.27;;;5.47;;
4827;SDS011;2428;48.732;9.148;2023-02-15T12:14:08;7.07;;;5.63;;
4827;SDS011;2428;48.732;9.148;2023-02-15T12:16:46;10.50;;;5.87;;
4827;SDS011;2428;48.732;9.148;2023-02-15T12:21:51;8.20;;;6.70;;
4827;SDS011;2428;48.732;9.148;2023-02-15T12:26:58;7.80;;;6.03;;
4827;SDS011;2428;48.732;9.148;2023-02-15T12:29:47;6.50;;;5.10;;
4827;SDS011;2428;48.732;9.148;2023-02-15T12:32:22;7.07;;;6.50;;
4827;SDS011;2428;48.732;9.148;2023-02-15T12:34:50;8.70;;;6.30;;
4827;SDS011;2428;48.732;9.148;2023-02-15T12:37:23;7.93;;;5.55;;
4827;SDS011;2428;48.732;9.148;2023-02-15T12:39:55;6.53;;;5.95;;
4827;SDS011;2428;48.732;9.148;2023-02-15T12:42:23;7.90;;;5.82;;
4827;SDS011;2428;48.732;9.148;2023-02-15T12:47:22;6.13;;;5.10;;
4827;SDS011;2428;48.732;9.148;2023-02-15T12:50:05;10.00;;;6.10;;
4827;SDS011;2428;48.732;9.148;2023-02-15T12:52:31;7.85;;;5.95;;
4827;SDS011;2428;48.732;9.148;2023-02-15T12:55:09;7.53;;;6.20;;
4827;SDS011;2428;48.732;9.148;2023-02-15T12:58:12;6.78;;;5.93;;
4827;SDS011;2428;48.732;9.148;2023-02-15T13:00:42;9.57;;;6.78;;
4827;SDS011;2428;48.732;9.148;2023-02-15T13:03:19;8.60;;;6.43;;
4827;SDS011;2428;48.732;9.148;2023-02-15T13:05:48;6.97;;;4.73;;
4827;SDS011;2428;48.732;9.148;2023-02-15T13:08:29;9.40;;;5.90;;
4827;SDS011;2428;48.732;9.148;2023-02-15T13:10:57;6.43;;;5.70;;
4827;SDS011;2428;48.732;9.148;2023-02-15T13:13:45;7.40;;;6.72;;
4827;SDS011;2428;48.732;9.148;2023-02-15T13:16:16;8.47;;;7.10;;
4827;SDS011;2428;48.732;9.148;2023-02-15T13:18:53;11.15;;;6.53;;
4827;SDS011;2428;48.732;9.148;2023-02-15T13:21:31;7.90;;;4.93;;
4827;SDS011;2428;48.732;9.148;2023-02-15T13:24:01;6.47;;;5.25;;
4827;SDS011;2428;48.732;9.148;2023-02-15T13:26:31;6.07;;;4.43;;
4827;SDS011;2428;48.732;9.148;2023-02-15T13:29:00;5.75;;;5.05;;
4827;SDS011;2428;48.732;9.148;2023-02-15T13:31:50;5.35;;;4.82;;
4827;SDS011;2428;48.732;9.148;2023-02-15T13:34:22;8.63;;;5.05;;
4827;SDS011;2428;48.732;9.148;2023-02-15T13:37:05;9.07;;;6.72;;
4827;SDS011;2428;48.732;9.148;2023-02-15T13:42:20;10.00;;;6.40;;
4827;SDS011;2428;48.732;9.148;2023-02-15T13:45:28;9.13;;;5.45;;
4827;SDS011;2428;48.732;9.148;2023-02-15T13:59:57;7.90;;;6.53;;
4827;SDS011;2428;48.732;9.148;2023-02-15T14:10:42;15.30;;;7.53;;
4827;SDS011;2428;48.732;9.148;2023-02-15T14:16:10;8.87;;;7.20;;
4827;SDS011;2428;48.732;9.148;2023-02-15T14:21:50;9.20;;;5.40;;
4827;SDS011;2428;48.732;9.148;2023-02-15T14:24:37;6.60;;;5.90;;
4827;SDS011;2428;48.732;9.148;2023-02-15T14:29:47;7.57;;;6.00;;
4827;SDS011;2428;48.732;9.148;2023-02-15T14:32:25;7.93;;;6.50;;
4827;SDS011;2428;48.732;9.148;2023-02-15T14:34:56;12.73;;;6.75;;
4827;SDS011;2428;48.732;9.148;2023-02-15T14:43:30;12.60;;;7.73;;
4827;SDS011;2428;48.732;9.148;2023-02-15T14:49:25;8.90;;;6.83;;
4827;SDS011;2428;48.732;9.148;2023-02-15T14:51:54;5.77;;;4.17;;
4827;SDS011;2428;48.732;9.148;2023-02-15T14:59:37;9.50;;;6.20;;
4827;SDS011;2428;48.732;9.148;2023-02-15T15:02:16;8.50;;;5.60;;
4827;SDS011;2428;48.732;9.148;2023-02-15T15:07:24;12.47;;;7.13;;
4827;SDS011;2428;48.732;9.148;2023-02-15T15:09:58;8.87;;;5.90;;
4827;SDS011;2428;48.732;9.148;2023-02-15T15:12:40;9.00;;;5.80;;
4827;SDS011;2428;48.732;9.148;2023-02-15T15:15:10;9.20;;;5.83;;
4827;SDS011;2428;48.732;9.148;2023-02-15T15:22:38;7.90;;;6.27;;
4827;SDS011;2428;48.732;9.148;2023-02-15T15:27:55;7.37;;;5.23;;
4827;SDS011;2428;48.732;9.148;2023-02-15T15:38:38;7.43;;;4.97;;
4827;SDS011;2428;48.732;9.148;2023-02-15T15:49:24;9.40;;;5.73;;
4827;SDS011;2428;48.732;9.148;2023-02-15T15:51:55;4.50;;;4.20;;
4827;SDS011;2428;48.732;9.148;2023-02-15T15:54:33;5.57;;;5.07;;
4827;SDS011;2428;48.732;9.148;2023-02-15T15:57:00;7.60;;;5.43;;
4827;SDS011;2428;48.732;9.148;2023-02-15T15:59:29;6.70;;;5.17;;
4827;SDS011;2428;48.732;9.148;2023-02-15T16:02:04;9.27;;;6.18;;
4827;SDS011;2428;48.732;9.148;2023-02-15T16:04:33;6.57;;;5.87;;
4827;SDS011;2428;48.732;9.148;2023-02-15T16:10:05;7.63;;;4.60;;
4827;SDS011;2428;48.732;9.148;2023-02-15T16:12:33;10.53;;;6.47;;
4827;SDS011;2428;48.732;9.148;2023-02-15T16:15:02;7.25;;;5.63;;
4827;SDS011;2428;48.732;9.148;2023-02-15T16:17:38;7.03;;;5.13;;
4827;SDS011;2428;48.732;9.148;2023-02-15T16:20:15;10.33;;;5.50;;
4827;SDS011;2428;48.732;9.148;2023-02-15T16:22:44;7.13;;;5.83;;
4827;SDS011;2428;48.732;9.148;2023-02-15T16:28:13;4.70;;;4.20;;
4827;SDS011;2428;48.732;9.148;2023-02-15T16:30:39;10.93;;;6.83;;
4827;SDS011;2428;48.732;9.148;2023-02-15T16:33:08;6.60;;;4.80;;
4827;SDS011;2428;48.732;9.148;2023-02-15T16:35:37;5.47;;;5.00;;
4827;SDS011;2428;48.732;9.148;2023-02-15T16:38:04;5.72;;;5.18;;
4827;SDS011;2428;48.732;9.148;2023-02-15T16:40:47;6.75;;;5.35;;
4827;SDS011;2428;48.732;9.148;2023-02-15T16:43:25;7.60;;;5.30;;
4827;SDS011;2428;48.732;9.148;2023-02-15T16:45:53;6.43;;;5.55;;
4827;SDS011;2428;48.732;9.148;2023-02-15T16:48:28;6.32;;;4.68;;
4827;SDS011;2428;48.732;9.148;2023-02-15T16:50:55;6.07;;;4.50;;
4827;SDS011;2428;48.732;9.148;2023-02-15T16:53:26;8.10;;;5.70;;
4827;SDS011;2428;48.732;9.148;2023-02-15T16:55:57;6.63;;;5.22;;
4827;SDS011;2428;48.732;9.148;2023-02-15T16:58:26;5.18;;;3.83;;
4827;SDS011;2428;48.732;9.148;2023-02-15T17:01:01;10.35;;;5.13;;
4827;SDS011;2428;48.732;9.148;2023-02-15T17:03:27;8.57;;;5.00;;
4827;SDS011;2428;48.732;9.148;2023-02-15T17:05:54;5.25;;;4.75;;
4827;SDS011;2428;48.732;9.148;2023-02-15T17:13:36;5.95;;;5.22;;
4827;SDS011;2428;48.732;9.148;2023-02-15T17:18:29;6.10;;;5.50;;
4827;SDS011;2428;48.732;9.148;2023-02-15T17:20:59;6.43;;;3.60;;
4827;SDS011;2428;48.732;9.148;2023-02-15T17:23:34;8.77;;;4.57;;
4827;SDS011;2428;48.732;9.148;2023-02-15T17:26:11;5.60;;;5.05;;
4827;SDS011;2428;48.732;9.148;2023-02-15T17:28:44;9.75;;;4.50;;
4827;SDS011;2428;48.732;9.148;2023-02-15T17:31:17;4.88;;;4.20;;
4827;SDS011;2428;48.732;9.148;2023-02-15T17:33:44;3.50;;;3.20;;
4827;SDS011;2428;48.732;9.148;2023-02-15T17:36:17;7.97;;;4.97;;
4827;SDS011;2428;48.732;9.148;2023-02-15T17:39:18;8.02;;;5.65;;
4827;SDS011;2428;48.732;9.148;2023-02-15T17:41:44;6.05;;;4.15;;
4827;SDS011;2428;48.732;9.148;2023-02-15T17:44:09;8.10;;;6.00;;
4827;SDS011;2428;48.732;9.148;2023-02-15T17:46:39;10.13;;;5.93;;
4827;SDS011;2428;48.732;9.148;2023-02-15T17:49:05;3.85;;;3.55;;
4827;SDS011;2428;48.732;9.148;2023-02-15T17:51:31;5.57;;;4.07;;
4827;SDS011;2428;48.732;9.148;2023-02-15T17:54:00;6.72;;;4.18;;
4827;SDS011;2428;48.732;9.148;2023-02-15T17:56:44;7.22;;;4.82;;
4827;SDS011;2428;48.732;9.148;2023-02-15T17:59:10;4.70;;;4.30;;
4827;SDS011;2428;48.732;9.148;2023-02-15T18:01:39;9.32;;;7.15;;
4827;SDS011;2428;48.732;9.148;2023-02-15T18:04:30;3.05;;;2.75;;
4827;SDS011;2428;48.732;9.148;2023-02-15T18:07:17;7.82;;;5.70;;
4827;SDS011;2428;48.732;9.148;2023-02-15T18:10:03;5.70;;;4.25;;
4827;SDS011;2428;48.732;9.148;2023-02-15T18:12:57;8.20;;;4.10;;
4827;SDS011;2428;48.732;9.148;2023-02-15T18:15:23;6.63;;;6.07;;
4827;SDS011;2428;48.732;9.148;2023-02-15T18:17:49;4.28;;;3.95;;
4827;SDS011;2428;48.732;9.148;2023-02-15T18:22:47;5.78;;;4.15;;
4827;SDS011;2428;48.732;9.148;2023-02-15T18:25:14;5.00;;;4.40;;
4827;SDS011;2428;48.732;9.148;2023-02-15T18:27:41;6.72;;;5.07;;
4827;SDS011;2428;48.732;9.148;2023-02-15T18:30:07;6.53;;;4.40;;
4827;SDS011;2428;48.732;9.148;2023-02-15T18:32:37;11.73;;;5.07;;
4827;SDS011;2428;48.732;9.148;2023-02-15T18:35:05;6.80;;;5.25;;
4827;SDS011;2428;48.732;9.148;2023-02-15T18:37:31;6.00;;;4.55;;
4827;SDS011;2428;48.732;9.148;2023-02-15T18:39:58;10.90;;;4.40;;
4827;SDS011;2428;48.732;9.148;2023-02-15T18:47:37;3.13;;;2.55;;
4827;SDS011;2428;48.732;9.148;2023-02-15T18:50:02;7.00;;;5.40;;
4827;SDS011;2428;48.732;9.148;2023-02-15T18:52:29;5.05;;;4.75;;
4827;SDS011;2428;48.732;9.148;2023-02-15T18:54:59;3.95;;;3.60;;
4827;SDS011;2428;48.732;9.148;2023-02-15T18:57:27;4.25;;;3.20;;
4827;SDS011;2428;48.732;9.148;2023-02-15T18:59:54;3.13;;;2.92;;
4827;SDS011;2428;48.732;9.148;2023-02-15T19:02:20;5.77;;;3.73;;
4827;SDS011;2428;48.732;9.148;2023-02-15T19:04:45;5.23;;;4.73;;